sensor_id;sensor_type;location;lat;lon;timestamp;P1;durP1;ratioP1;P2;durP2;ratioP2
27265;SDS011;14766;51.380;13.762;2022-09-03T00:02:44;1.75;;;1.05;;
27265;SDS011;14766;51.380;13.762;2022-09-03T00:07:56;2.03;;;1.02;;
27265;SDS011;14766;51.380;13.762;2022-09-03T00:13:12;1.65;;;1.10;;
27265;SDS011;14766;51.380;13.762;2022-09-03T00:15:59;1.85;;;1.08;;
27265;SDS011;14766;51.380;13.762;2022-09-03T00:18:31;1.85;;;1.10;;
27265;SDS011;14766;51.380;13.762;2022-09-03T00:21:05;2.58;;;1.20;;
27265;SDS011;14766;51.380;13.762;2022-09-03T00:23:37;1.50;;;0.93;;
27265;SDS011;14766;51.380;13.762;2022-09-03T00:28:44;1.95;;;1.20;;
27265;SDS011;14766;51.380;13.762;2022-09-03T00:31:27;2.35;;;1.20;;
27265;SDS011;14766;51.380;13.762;2022-09-03T00:34:14;2.17;;;1.00;;
27265;SDS011;14766;51.380;13.762;2022-09-03T00:36:48;2.80;;;1.50;;
27265;SDS011;14766;51.380;13.762;2022-09-03T00:39:17;1.40;;;1.10;;
27265;SDS011;14766;51.380;13.762;2022-09-03T00:47:29;1.35;;;1.25;;
27265;SDS011;14766;51.380;13.762;2022-09-03T00:50:21;1.33;;;1.10;;
27265;SDS011;14766;51.380;13.762;2022-09-03T00:53:10;2.85;;;1.10;;
27265;SDS011;14766;51.380;13.762;2022-09-03T01:01:15;1.60;;;1.10;;
27265;SDS011;14766;51.380;13.762;2022-09-03T01:04:00;1.20;;;1.10;;
27265;SDS011;14766;51.380;13.762;2022-09-03T01:12:00;1.60;;;1.20;;
27265;SDS011;14766;51.380;13.762;2022-09-03T01:14:37;1.75;;;1.20;;
27265;SDS011;14766;51.380;13.762;2022-09-03T01:17:45;1.27;;;1.08;;
27265;SDS011;14766;51.380;13.762;2022-09-03T01:25:53;4.57;;;1.40;;
27265;SDS011;14766;51.380;13.762;2022-09-03T01:28:34;1.27;;;1.17;;
27265;SDS011;14766;51.380;13.762;2022-09-03T01:31:36;2.38;;;1.27;;
27265;SDS011;14766;51.380;13.762;2022-09-03T01:48:04;3.20;;;1.88;;
27265;SDS011;14766;51.380;13.762;2022-09-03T01:53:31;3.08;;;1.50;;
27265;SDS011;14766;51.380;13.762;2022-09-03T01:56:18;3.97;;;1.70;;
27265;SDS011;14766;51.380;13.762;2022-09-03T01:59:34;3.72;;;1.77;;
27265;SDS011;14766;51.380;13.762;2022-09-03T02:02:17;3.40;;;1.88;;
27265;SDS011;14766;51.380;13.762;2022-09-03T02:05:11;2.88;;;1.77;;
27265;SDS011;14766;51.380;13.762;2022-09-03T02:07:41;2.83;;;1.60;;
27265;SDS011;14766;51.380;13.762;2022-09-03T02:10:12;2.45;;;1.70;;
27265;SDS011;14766;51.380;13.762;2022-09-03T02:12:44;3.38;;;1.75;;
27265;SDS011;14766;51.380;13.762;2022-09-03T02:15:16;3.72;;;1.75;;
27265;SDS011;14766;51.380;13.762;2022-09-03T02:17:47;3.35;;;1.77;;
27265;SDS011;14766;51.380;13.762;2022-09-03T02:20:16;6.15;;;2.25;;
27265;SDS011;14766;51.380;13.762;2022-09-03T02:22:47;3.20;;;1.85;;
27265;SDS011;14766;51.380;13.762;2022-09-03T02:25:16;3.55;;;2.17;;
27265;SDS011;14766;51.380;13.762;2022-09-03T02:28:09;4.40;;;1.92;;
27265;SDS011;14766;51.380;13.762;2022-09-03T02:30:52;3.45;;;2.20;;
27265;SDS011;14766;51.380;13.762;2022-09-03T02:33:20;4.00;;;2.25;;
27265;SDS011;14766;51.380;13.762;2022-09-03T02:35:47;4.05;;;2.17;;
27265;SDS011;14766;51.380;13.762;2022-09-03T02:38:16;3.63;;;1.75;;
27265;SDS011;14766;51.380;13.762;2022-09-03T02:40:45;4.07;;;2.28;;
27265;SDS011;14766;51.380;13.762;2022-09-03T02:43:46;3.53;;;1.95;;
27265;SDS011;14766;51.380;13.762;2022-09-03T02:46:22;2.25;;;1.60;;
27265;SDS011;14766;51.380;13.762;2022-09-03T02:48:53;4.57;;;2.10;;
27265;SDS011;14766;51.380;13.762;2022-09-03T02:51:21;3.80;;;1.80;;
27265;SDS011;14766;51.380;13.762;2022-09-03T02:53:48;2.95;;;1.73;;
27265;SDS011;14766;51.380;13.762;2022-09-03T02:56:16;2.40;;;1.60;;
27265;SDS011;14766;51.380;13.762;2022-09-03T02:58:43;2.65;;;1.60;;
27265;SDS011;14766;51.380;13.762;2022-09-03T03:01:11;2.50;;;1.42;;
27265;SDS011;14766;51.380;13.762;2022-09-03T03:03:49;3.65;;;1.75;;
27265;SDS011;14766;51.380;13.762;2022-09-03T03:06:17;1.55;;;1.38;;
27265;SDS011;14766;51.380;13.762;2022-09-03T03:08:47;2.88;;;1.70;;
27265;SDS011;14766;51.380;13.762;2022-09-03T03:11:16;2.80;;;1.45;;
27265;SDS011;14766;51.380;13.762;2022-09-03T03:13:45;3.70;;;1.30;;
27265;SDS011;14766;51.380;13.762;2022-09-03T03:16:14;1.85;;;1.45;;
27265;SDS011;14766;51.380;13.762;2022-09-03T03:18:42;2.47;;;1.50;;
27265;SDS011;14766;51.380;13.762;2022-09-03T03:21:15;3.60;;;1.50;;
27265;SDS011;14766;51.380;13.762;2022-09-03T03:23:43;2.53;;;1.42;;
27265;SDS011;14766;51.380;13.762;2022-09-03T03:26:11;2.25;;;1.30;;
27265;SDS011;14766;51.380;13.762;2022-09-03T03:28:41;2.13;;;1.25;;
27265;SDS011;14766;51.380;13.762;2022-09-03T03:31:12;2.92;;;1.40;;
27265;SDS011;14766;51.380;13.762;2022-09-03T03:33:42;1.40;;;1.15;;
27265;SDS011;14766;51.380;13.762;2022-09-03T03:36:11;2.67;;;1.30;;
27265;SDS011;14766;51.380;13.762;2022-09-03T03:38:41;1.83;;;1.17;;
27265;SDS011;14766;51.380;13.762;2022-09-03T03:43:44;1.95;;;1.20;;
27265;SDS011;14766;51.380;13.762;2022-09-03T03:46:11;1.40;;;1.10;;
27265;SDS011;14766;51.380;13.762;2022-09-03T03:48:40;2.28;;;1.25;;
27265;SDS011;14766;51.380;13.762;2022-09-03T03:51:09;1.75;;;1.10;;
27265;SDS011;14766;51.380;13.762;2022-09-03T03:53:36;5.03;;;1.17;;
27265;SDS011;14766;51.380;13.762;2022-09-03T03:56:08;1.55;;;1.27;;
27265;SDS011;14766;51.380;13.762;2022-09-03T03:58:38;2.03;;;1.27;;
27265;SDS011;14766;51.380;13.762;2022-09-03T04:01:11;2.00;;;1.33;;
27265;SDS011;14766;51.380;13.762;2022-09-03T04:03:40;2.15;;;1.40;;
27265;SDS011;14766;51.380;13.762;2022-09-03T04:06:08;1.38;;;1.27;;
27265;SDS011;14766;51.380;13.762;2022-09-03T04:08:40;1.98;;;1.30;;
27265;SDS011;14766;51.380;13.762;2022-09-03T04:11:10;3.20;;;1.52;;
27265;SDS011;14766;51.380;13.762;2022-09-03T04:13:40;4.22;;;1.52;;
27265;SDS011;14766;51.380;13.762;2022-09-03T04:16:10;3.53;;;1.50;;
27265;SDS011;14766;51.380;13.762;2022-09-03T04:18:42;2.35;;;1.55;;
27265;SDS011;14766;51.380;13.762;2022-09-03T04:21:10;1.98;;;1.20;;
27265;SDS011;14766;51.380;13.762;2022-09-03T04:23:58;1.67;;;1.30;;
27265;SDS011;14766;51.380;13.762;2022-09-03T04:26:26;1.95;;;1.40;;
27265;SDS011;14766;51.380;13.762;2022-09-03T04:28:58;2.33;;;1.73;;
27265;SDS011;14766;51.380;13.762;2022-09-03T04:31:27;3.28;;;1.60;;
27265;SDS011;14766;51.380;13.762;2022-09-03T04:33:57;2.08;;;1.45;;
27265;SDS011;14766;51.380;13.762;2022-09-03T04:36:25;2.05;;;1.33;;
27265;SDS011;14766;51.380;13.762;2022-09-03T04:38:54;1.48;;;1.30;;
27265;SDS011;14766;51.380;13.762;2022-09-03T04:41:24;1.33;;;1.15;;
27265;SDS011;14766;51.380;13.762;2022-09-03T04:43:53;1.38;;;1.27;;
27265;SDS011;14766;51.380;13.762;2022-09-03T04:46:23;1.92;;;1.50;;
27265;SDS011;14766;51.380;13.762;2022-09-03T04:48:52;2.83;;;1.40;;
27265;SDS011;14766;51.380;13.762;2022-09-03T04:51:22;1.83;;;1.23;;
27265;SDS011;14766;51.380;13.762;2022-09-03T04:53:54;3.22;;;1.45;;
27265;SDS011;14766;51.380;13.762;2022-09-03T04:56:24;1.95;;;1.20;;
27265;SDS011;14766;51.380;13.762;2022-09-03T04:58:54;1.90;;;1.38;;
27265;SDS011;14766;51.380;13.762;2022-09-03T05:01:27;2.08;;;1.20;;
27265;SDS011;14766;51.380;13.762;2022-09-03T05:03:56;1.30;;;1.20;;
27265;SDS011;14766;51.380;13.762;2022-09-03T05:06:24;2.45;;;1.40;;
27265;SDS011;14766;51.380;13.762;2022-09-03T05:08:52;1.75;;;1.33;;
27265;SDS011;14766;51.380;13.762;2022-09-03T05:11:21;4.22;;;1.55;;
27265;SDS011;14766;51.380;13.762;2022-09-03T05:13:49;1.73;;;1.20;;
27265;SDS011;14766;51.380;13.762;2022-09-03T05:16:18;1.60;;;1.23;;
27265;SDS011;14766;51.380;13.762;2022-09-03T05:18:47;3.60;;;1.42;;
27265;SDS011;14766;51.380;13.762;2022-09-03T05:21:18;2.40;;;1.35;;
27265;SDS011;14766;51.380;13.762;2022-09-03T05:23:46;1.38;;;1.17;;
27265;SDS011;14766;51.380;13.762;2022-09-03T05:26:28;1.83;;;1.20;;
27265;SDS011;14766;51.380;13.762;2022-09-03T05:29:02;2.25;;;1.40;;
27265;SDS011;14766;51.380;13.762;2022-09-03T05:31:34;1.92;;;1.25;;
27265;SDS011;14766;51.380;13.762;2022-09-03T05:34:05;2.95;;;1.83;;
27265;SDS011;14766;51.380;13.762;2022-09-03T05:36:34;1.85;;;1.40;;
27265;SDS011;14766;51.380;13.762;2022-09-03T05:39:03;2.40;;;1.60;;
27265;SDS011;14766;51.380;13.762;2022-09-03T05:41:31;3.15;;;1.70;;
27265;SDS011;14766;51.380;13.762;2022-09-03T05:44:01;1.70;;;1.50;;
27265;SDS011;14766;51.380;13.762;2022-09-03T05:46:30;2.33;;;1.77;;
27265;SDS011;14766;51.380;13.762;2022-09-03T05:49:03;3.17;;;1.60;;
27265;SDS011;14766;51.380;13.762;2022-09-03T05:51:32;2.75;;;1.88;;
27265;SDS011;14766;51.380;13.762;2022-09-03T05:54:01;2.10;;;1.70;;
27265;SDS011;14766;51.380;13.762;2022-09-03T05:56:29;2.35;;;1.80;;
27265;SDS011;14766;51.380;13.762;2022-09-03T05:58:59;2.53;;;1.40;;
27265;SDS011;14766;51.380;13.762;2022-09-03T06:01:29;3.90;;;2.17;;
27265;SDS011;14766;51.380;13.762;2022-09-03T06:04:12;4.28;;;2.10;;
27265;SDS011;14766;51.380;13.762;2022-09-03T06:06:44;2.80;;;1.80;;
27265;SDS011;14766;51.380;13.762;2022-09-03T06:09:13;3.63;;;2.00;;
27265;SDS011;14766;51.380;13.762;2022-09-03T06:11:49;3.17;;;2.20;;
27265;SDS011;14766;51.380;13.762;2022-09-03T06:14:18;2.72;;;1.98;;
27265;SDS011;14766;51.380;13.762;2022-09-03T06:16:47;2.95;;;1.92;;
27265;SDS011;14766;51.380;13.762;2022-09-03T06:19:15;3.42;;;1.80;;
27265;SDS011;14766;51.380;13.762;2022-09-03T06:21:43;2.20;;;1.70;;
27265;SDS011;14766;51.380;13.762;2022-09-03T06:24:13;2.40;;;1.80;;
27265;SDS011;14766;51.380;13.762;2022-09-03T06:26:42;2.83;;;1.90;;
27265;SDS011;14766;51.380;13.762;2022-09-03T06:29:11;2.22;;;1.58;;
27265;SDS011;14766;51.380;13.762;2022-09-03T06:31:38;2.30;;;1.80;;
27265;SDS011;14766;51.380;13.762;2022-09-03T06:34:05;3.75;;;1.88;;
27265;SDS011;14766;51.380;13.762;2022-09-03T06:36:33;2.70;;;1.63;;
27265;SDS011;14766;51.380;13.762;2022-09-03T06:39:00;3.55;;;1.90;;
27265;SDS011;14766;51.380;13.762;2022-09-03T06:41:28;2.63;;;1.70;;
27265;SDS011;14766;51.380;13.762;2022-09-03T06:43:59;2.22;;;1.80;;
27265;SDS011;14766;51.380;13.762;2022-09-03T06:46:30;3.22;;;1.80;;
27265;SDS011;14766;51.380;13.762;2022-09-03T06:49:01;2.63;;;1.90;;
27265;SDS011;14766;51.380;13.762;2022-09-03T06:51:28;2.75;;;2.00;;
27265;SDS011;14766;51.380;13.762;2022-09-03T06:54:01;5.68;;;2.20;;
27265;SDS011;14766;51.380;13.762;2022-09-03T06:56:32;4.25;;;2.00;;
27265;SDS011;14766;51.380;13.762;2022-09-03T06:59:12;2.20;;;1.63;;
27265;SDS011;14766;51.380;13.762;2022-09-03T07:01:41;2.47;;;1.67;;
27265;SDS011;14766;51.380;13.762;2022-09-03T07:04:12;2.30;;;1.55;;
27265;SDS011;14766;51.380;13.762;2022-09-03T07:06:44;2.75;;;1.60;;
27265;SDS011;14766;51.380;13.762;2022-09-03T07:09:12;3.33;;;1.63;;
27265;SDS011;14766;51.380;13.762;2022-09-03T07:11:41;3.38;;;2.10;;
27265;SDS011;14766;51.380;13.762;2022-09-03T07:14:14;1.98;;;1.60;;
27265;SDS011;14766;51.380;13.762;2022-09-03T07:16:47;2.53;;;1.80;;
27265;SDS011;14766;51.380;13.762;2022-09-03T07:19:15;2.15;;;1.60;;
27265;SDS011;14766;51.380;13.762;2022-09-03T07:21:43;3.05;;;1.73;;
27265;SDS011;14766;51.380;13.762;2022-09-03T07:24:16;4.07;;;1.90;;
27265;SDS011;14766;51.380;13.762;2022-09-03T07:26:45;1.92;;;1.73;;
27265;SDS011;14766;51.380;13.762;2022-09-03T07:29:14;2.63;;;1.75;;
27265;SDS011;14766;51.380;13.762;2022-09-03T07:31:47;2.20;;;1.60;;
27265;SDS011;14766;51.380;13.762;2022-09-03T07:34:19;2.67;;;1.85;;
27265;SDS011;14766;51.380;13.762;2022-09-03T07:36:51;3.22;;;1.67;;
27265;SDS011;14766;51.380;13.762;2022-09-03T07:39:19;2.22;;;1.60;;
27265;SDS011;14766;51.380;13.762;2022-09-03T07:41:46;3.15;;;1.70;;
27265;SDS011;14766;51.380;13.762;2022-09-03T07:44:15;2.75;;;1.70;;
27265;SDS011;14766;51.380;13.762;2022-09-03T07:46:45;2.90;;;2.03;;
27265;SDS011;14766;51.380;13.762;2022-09-03T07:49:17;2.35;;;2.05;;
27265;SDS011;14766;51.380;13.762;2022-09-03T07:51:45;2.10;;;1.50;;
27265;SDS011;14766;51.380;13.762;2022-09-03T07:54:16;2.33;;;1.67;;
27265;SDS011;14766;51.380;13.762;2022-09-03T07:56:43;2.38;;;1.58;;
27265;SDS011;14766;51.380;13.762;2022-09-03T07:59:10;2.78;;;1.60;;
27265;SDS011;14766;51.380;13.762;2022-09-03T08:01:37;8.15;;;1.52;;
27265;SDS011;14766;51.380;13.762;2022-09-03T08:04:07;3.00;;;1.75;;
27265;SDS011;14766;51.380;13.762;2022-09-03T08:06:35;2.30;;;1.48;;
27265;SDS011;14766;51.380;13.762;2022-09-03T08:09:04;1.88;;;1.50;;
27265;SDS011;14766;51.380;13.762;2022-09-03T08:11:35;1.58;;;1.40;;
27265;SDS011;14766;51.380;13.762;2022-09-03T08:14:04;3.05;;;1.35;;
27265;SDS011;14766;51.380;13.762;2022-09-03T08:16:40;2.10;;;1.42;;
27265;SDS011;14766;51.380;13.762;2022-09-03T08:19:15;2.65;;;1.58;;
27265;SDS011;14766;51.380;13.762;2022-09-03T08:21:47;2.00;;;1.58;;
27265;SDS011;14766;51.380;13.762;2022-09-03T08:24:15;2.53;;;1.30;;
27265;SDS011;14766;51.380;13.762;2022-09-03T08:26:43;2.28;;;1.73;;
27265;SDS011;14766;51.380;13.762;2022-09-03T08:29:17;2.05;;;1.42;;
27265;SDS011;14766;51.380;13.762;2022-09-03T08:31:45;3.35;;;1.30;;
27265;SDS011;14766;51.380;13.762;2022-09-03T08:34:12;2.58;;;1.42;;
27265;SDS011;14766;51.380;13.762;2022-09-03T08:36:40;2.22;;;1.60;;
27265;SDS011;14766;51.380;13.762;2022-09-03T08:39:07;2.85;;;1.55;;
27265;SDS011;14766;51.380;13.762;2022-09-03T08:47:11;2.53;;;1.60;;
27265;SDS011;14766;51.380;13.762;2022-09-03T08:52:20;2.08;;;1.50;;
27265;SDS011;14766;51.380;13.762;2022-09-03T08:54:57;2.38;;;1.40;;
27265;SDS011;14766;51.380;13.762;2022-09-03T08:57:31;2.22;;;1.52;;
27265;SDS011;14766;51.380;13.762;2022-09-03T09:00:07;3.13;;;1.73;;
27265;SDS011;14766;51.380;13.762;2022-09-03T09:02:45;2.20;;;1.50;;
27265;SDS011;14766;51.380;13.762;2022-09-03T09:05:48;3.53;;;1.50;;
27265;SDS011;14766;51.380;13.762;2022-09-03T09:08:44;2.15;;;1.40;;
27265;SDS011;14766;51.380;13.762;2022-09-03T09:14:01;2.45;;;1.67;;
27265;SDS011;14766;51.380;13.762;2022-09-03T09:16:39;6.20;;;1.45;;
27265;SDS011;14766;51.380;13.762;2022-09-03T09:22:00;4.38;;;1.70;;
27265;SDS011;14766;51.380;13.762;2022-09-03T09:24:49;2.65;;;1.77;;
27265;SDS011;14766;51.380;13.762;2022-09-03T09:27:20;2.53;;;1.65;;
27265;SDS011;14766;51.380;13.762;2022-09-03T09:29:49;2.85;;;1.70;;
27265;SDS011;14766;51.380;13.762;2022-09-03T09:32:19;1.65;;;1.50;;
27265;SDS011;14766;51.380;13.762;2022-09-03T09:34:47;1.98;;;1.52;;
27265;SDS011;14766;51.380;13.762;2022-09-03T09:37:18;2.47;;;1.73;;
27265;SDS011;14766;51.380;13.762;2022-09-03T09:39:55;2.22;;;1.65;;
27265;SDS011;14766;51.380;13.762;2022-09-03T09:42:25;2.17;;;1.35;;
27265;SDS011;14766;51.380;13.762;2022-09-03T09:44:55;2.67;;;1.77;;
27265;SDS011;14766;51.380;13.762;2022-09-03T09:47:26;2.30;;;1.50;;
27265;SDS011;14766;51.380;13.762;2022-09-03T09:49:59;1.65;;;1.48;;
27265;SDS011;14766;51.380;13.762;2022-09-03T09:52:28;2.78;;;1.63;;
27265;SDS011;14766;51.380;13.762;2022-09-03T09:55:07;2.05;;;1.50;;
27265;SDS011;14766;51.380;13.762;2022-09-03T09:57:39;2.13;;;1.45;;
27265;SDS011;14766;51.380;13.762;2022-09-03T10:00:07;2.83;;;1.60;;
27265;SDS011;14766;51.380;13.762;2022-09-03T10:02:40;2.00;;;1.60;;
27265;SDS011;14766;51.380;13.762;2022-09-03T10:05:19;2.13;;;1.88;;
27265;SDS011;14766;51.380;13.762;2022-09-03T10:08:00;2.70;;;2.10;;
27265;SDS011;14766;51.380;13.762;2022-09-03T10:10:48;3.17;;;2.30;;
27265;SDS011;14766;51.380;13.762;2022-09-03T10:13:23;2.25;;;1.73;;
27265;SDS011;14766;51.380;13.762;2022-09-03T10:19:08;2.42;;;1.75;;
27265;SDS011;14766;51.380;13.762;2022-09-03T10:21:50;2.05;;;1.70;;
27265;SDS011;14766;51.380;13.762;2022-09-03T10:26:57;3.67;;;2.20;;
27265;SDS011;14766;51.380;13.762;2022-09-03T10:29:24;2.97;;;2.30;;
27265;SDS011;14766;51.380;13.762;2022-09-03T10:32:02;2.95;;;1.60;;
27265;SDS011;14766;51.380;13.762;2022-09-03T10:50:45;3.03;;;1.50;;
27265;SDS011;14766;51.380;13.762;2022-09-03T10:55:55;4.32;;;1.63;;
27265;SDS011;14766;51.380;13.762;2022-09-03T11:01:44;1.90;;;1.70;;
27265;SDS011;14766;51.380;13.762;2022-09-03T11:07:24;2.28;;;1.73;;
27265;SDS011;14766;51.380;13.762;2022-09-03T11:12:34;2.55;;;1.60;;
27265;SDS011;14766;51.380;13.762;2022-09-03T11:15:08;2.63;;;1.63;;
27265;SDS011;14766;51.380;13.762;2022-09-03T11:18:03;1.55;;;1.30;;
27265;SDS011;14766;51.380;13.762;2022-09-03T11:20:40;4.15;;;1.60;;
27265;SDS011;14766;51.380;13.762;2022-09-03T11:23:09;2.15;;;1.65;;
27265;SDS011;14766;51.380;13.762;2022-09-03T11:25:42;2.28;;;1.75;;
27265;SDS011;14766;51.380;13.762;2022-09-03T11:34:07;3.17;;;1.73;;
27265;SDS011;14766;51.380;13.762;2022-09-03T11:36:48;2.40;;;1.35;;
27265;SDS011;14766;51.380;13.762;2022-09-03T11:41:56;4.53;;;1.58;;
27265;SDS011;14766;51.380;13.762;2022-09-03T11:44:39;2.38;;;1.80;;
27265;SDS011;14766;51.380;13.762;2022-09-03T11:47:24;2.63;;;1.58;;
27265;SDS011;14766;51.380;13.762;2022-09-03T11:50:16;4.00;;;2.17;;
27265;SDS011;14766;51.380;13.762;2022-09-03T11:52:47;2.20;;;1.65;;
27265;SDS011;14766;51.380;13.762;2022-09-03T11:55:28;2.17;;;1.80;;
27265;SDS011;14766;51.380;13.762;2022-09-03T11:58:10;3.03;;;1.98;;
27265;SDS011;14766;51.380;13.762;2022-09-03T12:00:46;2.42;;;1.80;;
27265;SDS011;14766;51.380;13.762;2022-09-03T12:03:14;2.58;;;1.60;;
27265;SDS011;14766;51.380;13.762;2022-09-03T12:05:47;2.78;;;1.70;;
27265;SDS011;14766;51.380;13.762;2022-09-03T12:20:15;3.20;;;1.58;;
27265;SDS011;14766;51.380;13.762;2022-09-03T12:22:44;2.35;;;1.70;;
27265;SDS011;14766;51.380;13.762;2022-09-03T12:25:12;2.40;;;1.60;;
27265;SDS011;14766;51.380;13.762;2022-09-03T12:27:43;2.72;;;2.20;;
27265;SDS011;14766;51.380;13.762;2022-09-03T12:30:17;3.85;;;2.50;;
27265;SDS011;14766;51.380;13.762;2022-09-03T12:32:47;2.78;;;1.90;;
27265;SDS011;14766;51.380;13.762;2022-09-03T12:35:21;5.65;;;2.10;;
27265;SDS011;14766;51.380;13.762;2022-09-03T12:38:12;2.90;;;1.60;;
27265;SDS011;14766;51.380;13.762;2022-09-03T12:40:44;2.92;;;1.70;;
27265;SDS011;14766;51.380;13.762;2022-09-03T12:43:31;2.50;;;1.77;;
27265;SDS011;14766;51.380;13.762;2022-09-03T12:46:13;2.08;;;1.52;;
27265;SDS011;14766;51.380;13.762;2022-09-03T12:49:03;4.28;;;1.85;;
27265;SDS011;14766;51.380;13.762;2022-09-03T12:51:58;2.85;;;1.98;;
27265;SDS011;14766;51.380;13.762;2022-09-03T12:54:32;2.28;;;1.60;;
27265;SDS011;14766;51.380;13.762;2022-09-03T12:57:03;2.30;;;1.50;;
27265;SDS011;14766;51.380;13.762;2022-09-03T12:59:31;6.38;;;2.15;;
27265;SDS011;14766;51.380;13.762;2022-09-03T13:02:02;3.45;;;2.08;;
27265;SDS011;14766;51.380;13.762;2022-09-03T13:04:38;3.15;;;2.08;;
27265;SDS011;14766;51.380;13.762;2022-09-03T13:07:20;3.17;;;2.25;;
27265;SDS011;14766;51.380;13.762;2022-09-03T13:09:54;3.55;;;1.90;;
27265;SDS011;14766;51.380;13.762;2022-09-03T13:12:34;2.42;;;1.52;;
27265;SDS011;14766;51.380;13.762;2022-09-03T13:15:20;1.90;;;1.52;;
27265;SDS011;14766;51.380;13.762;2022-09-03T13:18:24;2.60;;;1.80;;
27265;SDS011;14766;51.380;13.762;2022-09-03T13:21:01;2.50;;;1.40;;
27265;SDS011;14766;51.380;13.762;2022-09-03T13:30:14;3.20;;;1.73;;
27265;SDS011;14766;51.380;13.762;2022-09-03T13:35:37;2.95;;;1.77;;
27265;SDS011;14766;51.380;13.762;2022-09-03T13:43:24;3.67;;;1.98;;
27265;SDS011;14766;51.380;13.762;2022-09-03T13:46:11;3.17;;;1.60;;
27265;SDS011;14766;51.380;13.762;2022-09-03T13:48:44;2.38;;;1.75;;
27265;SDS011;14766;51.380;13.762;2022-09-03T13:51:53;2.22;;;1.75;;
27265;SDS011;14766;51.380;13.762;2022-09-03T14:00:39;3.28;;;1.92;;
27265;SDS011;14766;51.380;13.762;2022-09-03T14:03:30;2.38;;;1.92;;
27265;SDS011;14766;51.380;13.762;2022-09-03T14:15:07;3.28;;;2.03;;
27265;SDS011;14766;51.380;13.762;2022-09-03T14:23:43;3.58;;;1.75;;
27265;SDS011;14766;51.380;13.762;2022-09-03T14:26:32;2.45;;;1.52;;
27265;SDS011;14766;51.380;13.762;2022-09-03T14:29:15;2.75;;;2.05;;
27265;SDS011;14766;51.380;13.762;2022-09-03T15:08:09;2.42;;;1.77;;
27265;SDS011;14766;51.380;13.762;2022-09-03T15:10:49;2.65;;;1.70;;
27265;SDS011;14766;51.380;13.762;2022-09-03T15:13:26;4.05;;;1.95;;
27265;SDS011;14766;51.380;13.762;2022-09-03T15:24:50;3.63;;;2.10;;
27265;SDS011;14766;51.380;13.762;2022-09-03T15:27:47;2.80;;;1.77;;
27265;SDS011;14766;51.380;13.762;2022-09-03T15:30:23;2.45;;;1.98;;
27265;SDS011;14766;51.380;13.762;2022-09-03T15:33:16;2.67;;;1.90;;
27265;SDS011;14766;51.380;13.762;2022-09-03T15:36:08;4.07;;;2.28;;
27265;SDS011;14766;51.380;13.762;2022-09-03T15:39:00;4.55;;;2.55;;
27265;SDS011;14766;51.380;13.762;2022-09-03T15:41:58;2.85;;;2.10;;
27265;SDS011;14766;51.380;13.762;2022-09-03T15:44:33;5.70;;;3.05;;
27265;SDS011;14766;51.380;13.762;2022-09-03T15:47:08;5.30;;;3.05;;
27265;SDS011;14766;51.380;13.762;2022-09-03T15:49:50;3.05;;;2.10;;
27265;SDS011;14766;51.380;13.762;2022-09-03T15:55:10;4.32;;;2.10;;
27265;SDS011;14766;51.380;13.762;2022-09-03T15:57:53;2.28;;;1.85;;
27265;SDS011;14766;51.380;13.762;2022-09-03T16:01:19;3.17;;;2.00;;
27265;SDS011;14766;51.380;13.762;2022-09-03T16:07:32;4.85;;;2.80;;
27265;SDS011;14766;51.380;13.762;2022-09-03T16:10:06;3.55;;;2.58;;
27265;SDS011;14766;51.380;13.762;2022-09-03T16:15:42;2.85;;;2.13;;
27265;SDS011;14766;51.380;13.762;2022-09-03T16:18:22;3.78;;;2.03;;
27265;SDS011;14766;51.380;13.762;2022-09-03T16:20:57;2.97;;;1.80;;
27265;SDS011;14766;51.380;13.762;2022-09-03T16:26:31;3.83;;;2.10;;
27265;SDS011;14766;51.380;13.762;2022-09-03T16:29:16;3.70;;;2.05;;
27265;SDS011;14766;51.380;13.762;2022-09-03T16:40:33;3.63;;;2.13;;
27265;SDS011;14766;51.380;13.762;2022-09-03T16:46:23;3.47;;;1.83;;
27265;SDS011;14766;51.380;13.762;2022-09-03T16:51:45;1.95;;;1.65;;
27265;SDS011;14766;51.380;13.762;2022-09-03T17:08:39;2.58;;;1.80;;
27265;SDS011;14766;51.380;13.762;2022-09-03T17:14:19;2.67;;;2.17;;
27265;SDS011;14766;51.380;13.762;2022-09-03T17:34:49;2.42;;;1.65;;
27265;SDS011;14766;51.380;13.762;2022-09-03T17:37:32;3.85;;;2.20;;
27265;SDS011;14766;51.380;13.762;2022-09-03T17:48:52;3.42;;;2.08;;
27265;SDS011;14766;51.380;13.762;2022-09-03T17:57:14;3.08;;;2.22;;
27265;SDS011;14766;51.380;13.762;2022-09-03T17:59:49;2.63;;;2.08;;
27265;SDS011;14766;51.380;13.762;2022-09-03T18:02:49;2.78;;;2.10;;
27265;SDS011;14766;51.380;13.762;2022-09-03T18:05:45;4.20;;;2.25;;
27265;SDS011;14766;51.380;13.762;2022-09-03T18:11:29;3.40;;;2.30;;
27265;SDS011;14766;51.380;13.762;2022-09-03T18:14:05;5.60;;;2.58;;
27265;SDS011;14766;51.380;13.762;2022-09-03T18:17:30;3.03;;;2.13;;
27265;SDS011;14766;51.380;13.762;2022-09-03T18:23:02;3.95;;;2.33;;
27265;SDS011;14766;51.380;13.762;2022-09-03T18:26:27;2.30;;;2.00;;
27265;SDS011;14766;51.380;13.762;2022-09-03T18:32:33;3.08;;;2.10;;
27265;SDS011;14766;51.380;13.762;2022-09-03T18:35:18;2.83;;;2.22;;
27265;SDS011;14766;51.380;13.762;2022-09-03T18:38:04;4.75;;;2.50;;
27265;SDS011;14766;51.380;13.762;2022-09-03T18:47:09;3.35;;;2.35;;
27265;SDS011;14766;51.380;13.762;2022-09-03T18:50:33;4.38;;;2.63;;
27265;SDS011;14766;51.380;13.762;2022-09-03T18:53:35;5.38;;;2.70;;
27265;SDS011;14766;51.380;13.762;2022-09-03T18:56:44;4.55;;;2.33;;
27265;SDS011;14766;51.380;13.762;2022-09-03T19:16:18;3.40;;;2.38;;
27265;SDS011;14766;51.380;13.762;2022-09-03T19:22:15;4.38;;;2.55;;
27265;SDS011;14766;51.380;13.762;2022-09-03T19:25:17;4.35;;;2.60;;
27265;SDS011;14766;51.380;13.762;2022-09-03T19:40:44;3.22;;;2.42;;
27265;SDS011;14766;51.380;13.762;2022-09-03T19:46:50;5.18;;;2.88;;
27265;SDS011;14766;51.380;13.762;2022-09-03T19:49:44;3.80;;;3.00;;
27265;SDS011;14766;51.380;13.762;2022-09-03T19:55:55;3.67;;;2.80;;
27265;SDS011;14766;51.380;13.762;2022-09-03T19:58:46;4.90;;;2.67;;
27265;SDS011;14766;51.380;13.762;2022-09-03T20:01:36;3.65;;;2.53;;
27265;SDS011;14766;51.380;13.762;2022-09-03T20:04:26;3.45;;;2.60;;
27265;SDS011;14766;51.380;13.762;2022-09-03T20:07:20;4.35;;;2.55;;
27265;SDS011;14766;51.380;13.762;2022-09-03T20:10:11;4.20;;;2.58;;
27265;SDS011;14766;51.380;13.762;2022-09-03T20:13:10;3.22;;;2.20;;
27265;SDS011;14766;51.380;13.762;2022-09-03T20:15:45;4.10;;;2.60;;
27265;SDS011;14766;51.380;13.762;2022-09-03T20:21:22;3.55;;;2.50;;
27265;SDS011;14766;51.380;13.762;2022-09-03T20:35:07;5.90;;;2.75;;
27265;SDS011;14766;51.380;13.762;2022-09-03T20:40:40;4.85;;;2.55;;
27265;SDS011;14766;51.380;13.762;2022-09-03T20:48:34;2.80;;;2.33;;
27265;SDS011;14766;51.380;13.762;2022-09-03T21:10:56;3.38;;;2.40;;
27265;SDS011;14766;51.380;13.762;2022-09-03T21:13:59;4.50;;;2.40;;
27265;SDS011;14766;51.380;13.762;2022-09-03T21:27:18;3.17;;;2.42;;
27265;SDS011;14766;51.380;13.762;2022-09-03T21:32:29;4.63;;;2.80;;
27265;SDS011;14766;51.380;13.762;2022-09-03T21:35:04;3.22;;;2.38;;
27265;SDS011;14766;51.380;13.762;2022-09-03T21:37:44;3.20;;;2.47;;
27265;SDS011;14766;51.380;13.762;2022-09-03T21:40:21;4.93;;;2.72;;
27265;SDS011;14766;51.380;13.762;2022-09-03T21:42:56;3.75;;;2.55;;
27265;SDS011;14766;51.380;13.762;2022-09-03T21:45:33;3.55;;;2.58;;
27265;SDS011;14766;51.380;13.762;2022-09-03T21:48:06;4.32;;;2.67;;
27265;SDS011;14766;51.380;13.762;2022-09-03T21:50:41;4.22;;;2.63;;
27265;SDS011;14766;51.380;13.762;2022-09-03T22:04:43;3.55;;;2.42;;